sensor_id;sensor_type;location;lat;lon;timestamp;P1;durP1;ratioP1;P2;durP2;ratioP2
22778;SDS011;11556;51.194;3.800;2023-01-04T00:00:59;8.18;;;5.97;;
22778;SDS011;11556;51.194;3.800;2023-01-04T00:03:26;9.65;;;6.25;;
22778;SDS011;11556;51.194;3.800;2023-01-04T00:05:52;10.45;;;5.85;;
22778;SDS011;11556;51.194;3.800;2023-01-04T00:08:18;7.70;;;5.22;;
22778;SDS011;11556;51.194;3.800;2023-01-04T00:10:43;7.85;;;5.10;;
22778;SDS011;11556;51.194;3.800;2023-01-04T00:13:09;11.52;;;5.10;;
22778;SDS011;11556;51.194;3.800;2023-01-04T00:15:35;12.63;;;5.78;;
22778;SDS011;11556;51.194;3.800;2023-01-04T00:18:00;9.68;;;5.45;;
22778;SDS011;11556;51.194;3.800;2023-01-04T00:20:26;9.68;;;5.03;;
22778;SDS011;11556;51.194;3.800;2023-01-04T00:22:52;8.15;;;5.28;;
22778;SDS011;11556;51.194;3.800;2023-01-04T00:25:17;9.25;;;5.18;;
22778;SDS011;11556;51.194;3.800;2023-01-04T00:27:43;8.38;;;4.82;;
22778;SDS011;11556;51.194;3.800;2023-01-04T00:30:08;7.25;;;4.80;;
22778;SDS011;11556;51.194;3.800;2023-01-04T00:32:34;6.30;;;4.65;;
22778;SDS011;11556;51.194;3.800;2023-01-04T00:35:00;6.68;;;4.80;;
22778;SDS011;11556;51.194;3.800;2023-01-04T00:37:25;6.88;;;4.00;;
22778;SDS011;11556;51.194;3.800;2023-01-04T00:39:51;6.80;;;4.10;;
22778;SDS011;11556;51.194;3.800;2023-01-04T00:42:16;8.35;;;3.95;;
22778;SDS011;11556;51.194;3.800;2023-01-04T00:44:42;4.95;;;3.60;;
22778;SDS011;11556;51.194;3.800;2023-01-04T00:47:07;6.43;;;3.60;;
22778;SDS011;11556;51.194;3.800;2023-01-04T00:49:33;7.30;;;4.38;;
22778;SDS011;11556;51.194;3.800;2023-01-04T00:51:59;5.40;;;3.67;;
22778;SDS011;11556;51.194;3.800;2023-01-04T00:54:24;5.43;;;3.33;;
22778;SDS011;11556;51.194;3.800;2023-01-04T00:56:50;5.07;;;3.40;;
22778;SDS011;11556;51.194;3.800;2023-01-04T00:59:16;7.22;;;3.45;;
22778;SDS011;11556;51.194;3.800;2023-01-04T01:01:44;4.88;;;3.45;;
22778;SDS011;11556;51.194;3.800;2023-01-04T01:04:14;8.20;;;3.55;;
22778;SDS011;11556;51.194;3.800;2023-01-04T01:06:42;4.70;;;3.33;;
22778;SDS011;11556;51.194;3.800;2023-01-04T01:09:08;5.80;;;3.38;;
22778;SDS011;11556;51.194;3.800;2023-01-04T01:11:34;6.90;;;3.38;;
22778;SDS011;11556;51.194;3.800;2023-01-04T01:14:00;5.50;;;3.22;;
22778;SDS011;11556;51.194;3.800;2023-01-04T01:16:26;5.38;;;3.55;;
22778;SDS011;11556;51.194;3.800;2023-01-04T01:18:52;7.05;;;3.38;;
22778;SDS011;11556;51.194;3.800;2023-01-04T01:21:19;5.70;;;3.60;;
22778;SDS011;11556;51.194;3.800;2023-01-04T01:23:47;4.88;;;3.15;;
22778;SDS011;11556;51.194;3.800;2023-01-04T01:26:13;4.88;;;2.90;;
22778;SDS011;11556;51.194;3.800;2023-01-04T01:28:41;5.70;;;3.22;;
22778;SDS011;11556;51.194;3.800;2023-01-04T01:31:08;3.40;;;2.88;;
22778;SDS011;11556;51.194;3.800;2023-01-04T01:33:43;3.92;;;2.60;;
22778;SDS011;11556;51.194;3.800;2023-01-04T01:36:10;4.95;;;2.85;;
22778;SDS011;11556;51.194;3.800;2023-01-04T01:38:37;5.57;;;2.72;;
22778;SDS011;11556;51.194;3.800;2023-01-04T01:41:04;4.82;;;2.75;;
22778;SDS011;11556;51.194;3.800;2023-01-04T01:46:15;3.80;;;2.80;;
22778;SDS011;11556;51.194;3.800;2023-01-04T01:49:04;4.72;;;2.60;;
22778;SDS011;11556;51.194;3.800;2023-01-04T01:51:40;4.57;;;2.88;;
22778;SDS011;11556;51.194;3.800;2023-01-04T01:54:12;3.78;;;2.60;;
22778;SDS011;11556;51.194;3.800;2023-01-04T01:56:41;5.45;;;2.63;;
22778;SDS011;11556;51.194;3.800;2023-01-04T01:59:10;7.35;;;3.10;;
22778;SDS011;11556;51.194;3.800;2023-01-04T02:01:37;4.40;;;3.10;;
22778;SDS011;11556;51.194;3.800;2023-01-04T02:04:03;5.80;;;2.80;;
22778;SDS011;11556;51.194;3.800;2023-01-04T02:06:33;8.63;;;2.88;;
22778;SDS011;11556;51.194;3.800;2023-01-04T02:09:05;6.85;;;3.22;;
22778;SDS011;11556;51.194;3.800;2023-01-04T02:11:31;7.25;;;3.30;;
22778;SDS011;11556;51.194;3.800;2023-01-04T02:13:56;5.43;;;3.28;;
22778;SDS011;11556;51.194;3.800;2023-01-04T02:35:52;6.53;;;3.45;;
22778;SDS011;11556;51.194;3.800;2023-01-04T02:39:07;4.00;;;2.97;;
22778;SDS011;11556;51.194;3.800;2023-01-04T02:41:33;5.60;;;3.17;;
22778;SDS011;11556;51.194;3.800;2023-01-04T02:44:17;8.33;;;3.27;;
22778;SDS011;11556;51.194;3.800;2023-01-04T02:50:13;5.10;;;2.67;;
22778;SDS011;11556;51.194;3.800;2023-01-04T02:53:13;8.63;;;3.25;;
22778;SDS011;11556;51.194;3.800;2023-01-04T02:58:20;5.78;;;2.80;;
22778;SDS011;11556;51.194;3.800;2023-01-04T03:01:03;7.13;;;3.50;;
22778;SDS011;11556;51.194;3.800;2023-01-04T03:10:04;5.40;;;3.42;;
22778;SDS011;11556;51.194;3.800;2023-01-04T03:12:44;5.40;;;4.15;;
22778;SDS011;11556;51.194;3.800;2023-01-04T03:15:19;6.05;;;4.03;;
22778;SDS011;11556;51.194;3.800;2023-01-04T03:17:49;3.78;;;3.40;;
22778;SDS011;11556;51.194;3.800;2023-01-04T03:20:19;5.90;;;4.07;;
22778;SDS011;11556;51.194;3.800;2023-01-04T03:22:51;5.82;;;3.70;;
22778;SDS011;11556;51.194;3.800;2023-01-04T03:25:49;7.70;;;4.03;;
22778;SDS011;11556;51.194;3.800;2023-01-04T03:28:38;5.55;;;3.72;;
22778;SDS011;11556;51.194;3.800;2023-01-04T03:31:27;5.18;;;3.90;;
22778;SDS011;11556;51.194;3.800;2023-01-04T03:34:17;7.88;;;3.70;;
22778;SDS011;11556;51.194;3.800;2023-01-04T03:37:11;5.70;;;3.60;;
22778;SDS011;11556;51.194;3.800;2023-01-04T03:45:24;8.60;;;3.90;;
22778;SDS011;11556;51.194;3.800;2023-01-04T03:51:19;8.63;;;3.03;;
22778;SDS011;11556;51.194;3.800;2023-01-04T03:56:34;3.70;;;2.58;;
22778;SDS011;11556;51.194;3.800;2023-01-04T04:01:31;4.55;;;3.00;;
22778;SDS011;11556;51.194;3.800;2023-01-04T04:03:57;4.43;;;2.42;;
22778;SDS011;11556;51.194;3.800;2023-01-04T04:06:41;7.20;;;3.40;;
22778;SDS011;11556;51.194;3.800;2023-01-04T04:09:25;4.88;;;3.10;;
22778;SDS011;11556;51.194;3.800;2023-01-04T04:11:51;4.45;;;3.25;;
22778;SDS011;11556;51.194;3.800;2023-01-04T04:14:17;5.90;;;3.40;;
22778;SDS011;11556;51.194;3.800;2023-01-04T04:16:42;4.53;;;3.28;;
22778;SDS011;11556;51.194;3.800;2023-01-04T04:19:08;4.30;;;3.47;;
22778;SDS011;11556;51.194;3.800;2023-01-04T04:21:34;6.18;;;3.28;;
22778;SDS011;11556;51.194;3.800;2023-01-04T04:23:59;4.82;;;3.65;;
22778;SDS011;11556;51.194;3.800;2023-01-04T04:26:25;4.50;;;3.33;;
22778;SDS011;11556;51.194;3.800;2023-01-04T04:28:51;5.13;;;3.70;;
22778;SDS011;11556;51.194;3.800;2023-01-04T04:31:16;7.60;;;3.75;;
22778;SDS011;11556;51.194;3.800;2023-01-04T04:33:42;8.98;;;3.60;;
22778;SDS011;11556;51.194;3.800;2023-01-04T04:36:08;5.40;;;3.35;;
22778;SDS011;11556;51.194;3.800;2023-01-04T04:38:34;6.45;;;3.50;;
22778;SDS011;11556;51.194;3.800;2023-01-04T04:41:04;5.50;;;2.90;;
22778;SDS011;11556;51.194;3.800;2023-01-04T04:43:50;4.15;;;3.00;;
22778;SDS011;11556;51.194;3.800;2023-01-04T04:46:17;5.28;;;3.17;;
22778;SDS011;11556;51.194;3.800;2023-01-04T04:48:43;5.63;;;3.22;;
22778;SDS011;11556;51.194;3.800;2023-01-04T04:51:08;4.30;;;3.33;;
22778;SDS011;11556;51.194;3.800;2023-01-04T04:53:34;5.80;;;3.35;;
22778;SDS011;11556;51.194;3.800;2023-01-04T04:55:59;5.18;;;3.13;;
22778;SDS011;11556;51.194;3.800;2023-01-04T04:58:25;5.13;;;3.15;;
22778;SDS011;11556;51.194;3.800;2023-01-04T05:00:51;5.10;;;3.33;;
22778;SDS011;11556;51.194;3.800;2023-01-04T05:03:19;4.35;;;3.38;;
22778;SDS011;11556;51.194;3.800;2023-01-04T05:05:45;4.97;;;3.13;;
22778;SDS011;11556;51.194;3.800;2023-01-04T05:08:10;7.15;;;3.78;;
22778;SDS011;11556;51.194;3.800;2023-01-04T05:10:36;5.40;;;3.33;;
22778;SDS011;11556;51.194;3.800;2023-01-04T05:13:02;3.25;;;2.90;;
22778;SDS011;11556;51.194;3.800;2023-01-04T05:15:37;4.40;;;2.70;;
22778;SDS011;11556;51.194;3.800;2023-01-04T05:18:05;3.90;;;2.83;;
22778;SDS011;11556;51.194;3.800;2023-01-04T05:20:31;5.03;;;2.42;;
22778;SDS011;11556;51.194;3.800;2023-01-04T05:22:57;4.35;;;2.72;;
22778;SDS011;11556;51.194;3.800;2023-01-04T05:25:23;4.15;;;2.70;;
22778;SDS011;11556;51.194;3.800;2023-01-04T05:27:49;5.22;;;2.83;;
22778;SDS011;11556;51.194;3.800;2023-01-04T05:30:14;2.30;;;2.10;;
22778;SDS011;11556;51.194;3.800;2023-01-04T05:32:59;2.67;;;2.42;;
22778;SDS011;11556;51.194;3.800;2023-01-04T05:35:25;3.00;;;2.00;;
22778;SDS011;11556;51.194;3.800;2023-01-04T05:37:51;3.72;;;2.20;;
22778;SDS011;11556;51.194;3.800;2023-01-04T05:40:17;2.20;;;1.90;;
22778;SDS011;11556;51.194;3.800;2023-01-04T05:42:44;2.78;;;2.20;;
22778;SDS011;11556;51.194;3.800;2023-01-04T05:45:09;2.80;;;1.77;;
22778;SDS011;11556;51.194;3.800;2023-01-04T05:47:35;1.85;;;1.45;;
22778;SDS011;11556;51.194;3.800;2023-01-04T05:50:01;1.73;;;1.40;;
22778;SDS011;11556;51.194;3.800;2023-01-04T05:52:27;2.20;;;1.65;;
22778;SDS011;11556;51.194;3.800;2023-01-04T05:54:53;1.95;;;1.25;;
22778;SDS011;11556;51.194;3.800;2023-01-04T05:57:18;1.75;;;1.55;;
22778;SDS011;11556;51.194;3.800;2023-01-04T05:59:44;2.63;;;1.60;;
22778;SDS011;11556;51.194;3.800;2023-01-04T06:02:14;2.75;;;1.40;;
22778;SDS011;11556;51.194;3.800;2023-01-04T06:04:50;2.83;;;1.40;;
22778;SDS011;11556;51.194;3.800;2023-01-04T06:07:16;2.40;;;1.20;;
22778;SDS011;11556;51.194;3.800;2023-01-04T06:09:41;2.50;;;1.20;;
22778;SDS011;11556;51.194;3.800;2023-01-04T06:12:07;2.35;;;1.60;;
22778;SDS011;11556;51.194;3.800;2023-01-04T06:14:33;1.98;;;1.83;;
22778;SDS011;11556;51.194;3.800;2023-01-04T06:16:59;4.88;;;4.38;;
22778;SDS011;11556;51.194;3.800;2023-01-04T06:19:25;4.25;;;3.50;;
22778;SDS011;11556;51.194;3.800;2023-01-04T06:21:51;4.43;;;3.22;;
22778;SDS011;11556;51.194;3.800;2023-01-04T06:24:16;3.47;;;2.47;;
22778;SDS011;11556;51.194;3.800;2023-01-04T06:26:42;2.15;;;1.83;;
22778;SDS011;11556;51.194;3.800;2023-01-04T06:29:09;3.00;;;1.88;;
22778;SDS011;11556;51.194;3.800;2023-01-04T06:31:34;2.47;;;1.70;;
22778;SDS011;11556;51.194;3.800;2023-01-04T06:34:00;2.40;;;1.60;;
22778;SDS011;11556;51.194;3.800;2023-01-04T06:36:26;3.70;;;2.08;;
22778;SDS011;11556;51.194;3.800;2023-01-04T06:38:51;3.63;;;2.08;;
22778;SDS011;11556;51.194;3.800;2023-01-04T06:41:17;5.18;;;2.13;;
22778;SDS011;11556;51.194;3.800;2023-01-04T06:43:43;8.30;;;2.28;;
22778;SDS011;11556;51.194;3.800;2023-01-04T06:46:09;5.57;;;2.55;;
22778;SDS011;11556;51.194;3.800;2023-01-04T06:48:34;3.58;;;2.63;;
22778;SDS011;11556;51.194;3.800;2023-01-04T06:51:00;4.93;;;2.88;;
22778;SDS011;11556;51.194;3.800;2023-01-04T06:53:25;5.53;;;2.85;;
22778;SDS011;11556;51.194;3.800;2023-01-04T06:55:51;4.25;;;3.00;;
22778;SDS011;11556;51.194;3.800;2023-01-04T06:58:17;4.38;;;2.40;;
22778;SDS011;11556;51.194;3.800;2023-01-04T07:00:42;5.13;;;2.47;;
22778;SDS011;11556;51.194;3.800;2023-01-04T07:03:08;5.38;;;2.80;;
22778;SDS011;11556;51.194;3.800;2023-01-04T07:05:34;3.50;;;2.38;;
22778;SDS011;11556;51.194;3.800;2023-01-04T07:08:00;3.33;;;2.45;;
22778;SDS011;11556;51.194;3.800;2023-01-04T07:10:26;4.70;;;2.40;;
22778;SDS011;11556;51.194;3.800;2023-01-04T07:12:52;3.83;;;2.60;;
22778;SDS011;11556;51.194;3.800;2023-01-04T07:15:18;3.38;;;2.45;;
22778;SDS011;11556;51.194;3.800;2023-01-04T07:17:47;3.20;;;2.80;;
22778;SDS011;11556;51.194;3.800;2023-01-04T07:20:13;7.05;;;3.08;;
22778;SDS011;11556;51.194;3.800;2023-01-04T07:22:39;7.07;;;3.70;;
22778;SDS011;11556;51.194;3.800;2023-01-04T07:25:04;6.90;;;5.47;;
22778;SDS011;11556;51.194;3.800;2023-01-04T07:27:30;6.30;;;3.75;;
22778;SDS011;11556;51.194;3.800;2023-01-04T07:29:56;8.32;;;4.30;;
22778;SDS011;11556;51.194;3.800;2023-01-04T07:32:22;5.88;;;4.65;;
22778;SDS011;11556;51.194;3.800;2023-01-04T07:34:47;5.60;;;3.97;;
22778;SDS011;11556;51.194;3.800;2023-01-04T07:37:13;10.27;;;4.63;;
22778;SDS011;11556;51.194;3.800;2023-01-04T07:39:39;13.30;;;6.18;;
22778;SDS011;11556;51.194;3.800;2023-01-04T07:42:06;8.98;;;4.63;;
22778;SDS011;11556;51.194;3.800;2023-01-04T07:44:32;11.75;;;4.85;;
22778;SDS011;11556;51.194;3.800;2023-01-04T07:46:58;7.45;;;4.80;;
22778;SDS011;11556;51.194;3.800;2023-01-04T07:49:23;6.55;;;3.58;;
22778;SDS011;11556;51.194;3.800;2023-01-04T07:51:49;9.75;;;3.58;;
22778;SDS011;11556;51.194;3.800;2023-01-04T07:54:15;7.40;;;3.83;;
22778;SDS011;11556;51.194;3.800;2023-01-04T07:56:43;7.65;;;3.42;;
22778;SDS011;11556;51.194;3.800;2023-01-04T07:59:10;9.68;;;4.30;;
22778;SDS011;11556;51.194;3.800;2023-01-04T08:01:37;12.68;;;7.00;;
22778;SDS011;11556;51.194;3.800;2023-01-04T08:04:06;16.98;;;6.57;;
22778;SDS011;11556;51.194;3.800;2023-01-04T08:06:33;19.40;;;8.23;;
22778;SDS011;11556;51.194;3.800;2023-01-04T08:08:59;14.45;;;7.55;;
22778;SDS011;11556;51.194;3.800;2023-01-04T08:11:26;13.27;;;7.22;;
22778;SDS011;11556;51.194;3.800;2023-01-04T08:13:52;12.95;;;3.95;;
22778;SDS011;11556;51.194;3.800;2023-01-04T08:16:22;7.20;;;3.13;;
22778;SDS011;11556;51.194;3.800;2023-01-04T08:18:52;9.10;;;3.97;;
22778;SDS011;11556;51.194;3.800;2023-01-04T08:21:19;12.02;;;4.38;;
22778;SDS011;11556;51.194;3.800;2023-01-04T08:23:44;12.77;;;4.45;;
22778;SDS011;11556;51.194;3.800;2023-01-04T08:26:12;9.38;;;3.35;;
22778;SDS011;11556;51.194;3.800;2023-01-04T08:28:38;9.52;;;4.05;;
22778;SDS011;11556;51.194;3.800;2023-01-04T08:31:06;9.60;;;4.13;;
22778;SDS011;11556;51.194;3.800;2023-01-04T08:33:34;14.75;;;3.70;;
22778;SDS011;11556;51.194;3.800;2023-01-04T08:38:36;10.40;;;2.90;;
22778;SDS011;11556;51.194;3.800;2023-01-04T08:41:02;13.15;;;3.03;;
22778;SDS011;11556;51.194;3.800;2023-01-04T08:43:27;10.88;;;2.63;;
22778;SDS011;11556;51.194;3.800;2023-01-04T08:45:53;16.23;;;2.88;;
22778;SDS011;11556;51.194;3.800;2023-01-04T08:48:19;11.98;;;2.75;;
22778;SDS011;11556;51.194;3.800;2023-01-04T08:50:44;11.90;;;2.88;;
22778;SDS011;11556;51.194;3.800;2023-01-04T08:53:10;9.95;;;2.60;;
22778;SDS011;11556;51.194;3.800;2023-01-04T08:55:36;13.13;;;3.00;;
22778;SDS011;11556;51.194;3.800;2023-01-04T08:58:02;11.25;;;3.00;;
22778;SDS011;11556;51.194;3.800;2023-01-04T09:00:28;15.35;;;3.70;;
22778;SDS011;11556;51.194;3.800;2023-01-04T09:02:53;12.82;;;4.28;;
22778;SDS011;11556;51.194;3.800;2023-01-04T09:05:19;15.82;;;4.68;;
22778;SDS011;11556;51.194;3.800;2023-01-04T09:07:45;10.82;;;3.95;;
22778;SDS011;11556;51.194;3.800;2023-01-04T09:10:11;17.05;;;6.22;;
22778;SDS011;11556;51.194;3.800;2023-01-04T09:12:36;12.18;;;4.85;;
22778;SDS011;11556;51.194;3.800;2023-01-04T09:15:02;8.45;;;3.53;;
22778;SDS011;11556;51.194;3.800;2023-01-04T09:17:29;14.65;;;3.75;;
22778;SDS011;11556;51.194;3.800;2023-01-04T09:19:54;12.25;;;3.92;;
22778;SDS011;11556;51.194;3.800;2023-01-04T09:22:20;11.48;;;4.30;;
22778;SDS011;11556;51.194;3.800;2023-01-04T09:24:45;8.38;;;4.20;;
22778;SDS011;11556;51.194;3.800;2023-01-04T09:27:11;12.98;;;4.25;;
22778;SDS011;11556;51.194;3.800;2023-01-04T09:29:36;11.23;;;5.45;;
22778;SDS011;11556;51.194;3.800;2023-01-04T09:32:02;11.88;;;5.18;;
22778;SDS011;11556;51.194;3.800;2023-01-04T09:34:28;11.75;;;5.00;;
22778;SDS011;11556;51.194;3.800;2023-01-04T09:36:53;8.35;;;4.72;;
22778;SDS011;11556;51.194;3.800;2023-01-04T09:39:19;7.80;;;3.95;;
22778;SDS011;11556;51.194;3.800;2023-01-04T09:41:54;10.07;;;4.47;;
22778;SDS011;11556;51.194;3.800;2023-01-04T09:51:56;10.15;;;5.80;;
22778;SDS011;11556;51.194;3.800;2023-01-04T09:54:41;10.40;;;6.55;;
22778;SDS011;11556;51.194;3.800;2023-01-04T09:57:22;9.02;;;4.68;;
22778;SDS011;11556;51.194;3.800;2023-01-04T09:59:53;6.38;;;4.72;;
22778;SDS011;11556;51.194;3.800;2023-01-04T10:02:43;7.47;;;4.35;;
22778;SDS011;11556;51.194;3.800;2023-01-04T10:05:18;6.65;;;3.40;;
22778;SDS011;11556;51.194;3.800;2023-01-04T10:07:48;7.47;;;3.25;;
22778;SDS011;11556;51.194;3.800;2023-01-04T10:10:15;8.38;;;3.60;;
22778;SDS011;11556;51.194;3.800;2023-01-04T10:23:33;3.83;;;2.30;;
22778;SDS011;11556;51.194;3.800;2023-01-04T10:26:23;5.72;;;2.60;;
22778;SDS011;11556;51.194;3.800;2023-01-04T10:33:49;7.85;;;3.90;;
22778;SDS011;11556;51.194;3.800;2023-01-04T10:36:26;6.25;;;4.78;;
22778;SDS011;11556;51.194;3.800;2023-01-04T10:41:36;4.43;;;2.30;;
22778;SDS011;11556;51.194;3.800;2023-01-04T10:49:45;3.30;;;2.50;;
22778;SDS011;11556;51.194;3.800;2023-01-04T10:52:35;3.22;;;2.33;;
22778;SDS011;11556;51.194;3.800;2023-01-04T10:55:16;2.53;;;2.10;;
22778;SDS011;11556;51.194;3.800;2023-01-04T10:58:08;2.40;;;2.20;;
22778;SDS011;11556;51.194;3.800;2023-01-04T11:00:43;4.80;;;2.42;;
22778;SDS011;11556;51.194;3.800;2023-01-04T11:03:28;2.50;;;2.30;;
22778;SDS011;11556;51.194;3.800;2023-01-04T11:06:21;3.00;;;2.40;;
22778;SDS011;11556;51.194;3.800;2023-01-04T11:09:08;4.47;;;2.90;;
22778;SDS011;11556;51.194;3.800;2023-01-04T11:11:46;3.28;;;2.88;;
22778;SDS011;11556;51.194;3.800;2023-01-04T11:14:12;3.00;;;2.70;;
22778;SDS011;11556;51.194;3.800;2023-01-04T11:16:39;3.63;;;2.38;;
22778;SDS011;11556;51.194;3.800;2023-01-04T11:19:09;4.30;;;2.30;;
22778;SDS011;11556;51.194;3.800;2023-01-04T11:21:46;4.10;;;2.45;;
22778;SDS011;11556;51.194;3.800;2023-01-04T11:24:23;3.22;;;2.97;;
22778;SDS011;11556;51.194;3.800;2023-01-04T11:26:53;4.57;;;3.22;;
22778;SDS011;11556;51.194;3.800;2023-01-04T11:29:25;5.97;;;4.10;;
22778;SDS011;11556;51.194;3.800;2023-01-04T11:32:02;4.82;;;4.30;;
22778;SDS011;11556;51.194;3.800;2023-01-04T11:34:42;4.15;;;3.63;;
22778;SDS011;11556;51.194;3.800;2023-01-04T11:37:29;4.82;;;3.70;;
22778;SDS011;11556;51.194;3.800;2023-01-04T11:40:11;3.15;;;2.58;;
22778;SDS011;11556;51.194;3.800;2023-01-04T11:42:37;3.72;;;3.35;;
22778;SDS011;11556;51.194;3.800;2023-01-04T11:45:03;2.90;;;2.70;;
22778;SDS011;11556;51.194;3.800;2023-01-04T11:47:29;3.80;;;2.90;;
22778;SDS011;11556;51.194;3.800;2023-01-04T11:49:55;4.80;;;2.83;;
22778;SDS011;11556;51.194;3.800;2023-01-04T11:52:31;3.03;;;2.70;;
22778;SDS011;11556;51.194;3.800;2023-01-04T11:55:22;3.05;;;2.42;;
22778;SDS011;11556;51.194;3.800;2023-01-04T11:58:03;2.65;;;2.20;;
22778;SDS011;11556;51.194;3.800;2023-01-04T12:00:30;2.45;;;2.25;;
22778;SDS011;11556;51.194;3.800;2023-01-04T12:03:21;3.20;;;2.90;;
22778;SDS011;11556;51.194;3.800;2023-01-04T12:05:49;2.50;;;1.83;;
22778;SDS011;11556;51.194;3.800;2023-01-04T12:11:16;3.60;;;2.72;;
22778;SDS011;11556;51.194;3.800;2023-01-04T12:13:53;4.95;;;2.67;;
22778;SDS011;11556;51.194;3.800;2023-01-04T12:16:40;3.42;;;2.10;;
22778;SDS011;11556;51.194;3.800;2023-01-04T12:19:09;3.08;;;2.45;;
22778;SDS011;11556;51.194;3.800;2023-01-04T12:21:39;2.70;;;2.08;;
22778;SDS011;11556;51.194;3.800;2023-01-04T12:24:07;4.82;;;2.40;;
22778;SDS011;11556;51.194;3.800;2023-01-04T12:26:38;5.00;;;2.00;;
22778;SDS011;11556;51.194;3.800;2023-01-04T12:36:53;3.70;;;1.60;;
22778;SDS011;11556;51.194;3.800;2023-01-04T12:50:22;3.67;;;2.00;;
22778;SDS011;11556;51.194;3.800;2023-01-04T12:52:53;4.25;;;2.00;;
22778;SDS011;11556;51.194;3.800;2023-01-04T12:58:01;4.22;;;2.13;;
22778;SDS011;11556;51.194;3.800;2023-01-04T13:05:41;6.53;;;2.78;;
22778;SDS011;11556;51.194;3.800;2023-01-04T13:08:23;3.72;;;2.45;;
22778;SDS011;11556;51.194;3.800;2023-01-04T13:10:50;5.22;;;2.80;;
22778;SDS011;11556;51.194;3.800;2023-01-04T13:13:22;5.85;;;2.20;;
22778;SDS011;11556;51.194;3.800;2023-01-04T13:18:52;7.15;;;2.65;;
22778;SDS011;11556;51.194;3.800;2023-01-04T13:21:35;9.38;;;2.22;;
22778;SDS011;11556;51.194;3.800;2023-01-04T13:26:42;10.80;;;2.33;;
22778;SDS011;11556;51.194;3.800;2023-01-04T13:29:19;7.32;;;1.77;;
22778;SDS011;11556;51.194;3.800;2023-01-04T13:31:57;7.10;;;1.70;;
22778;SDS011;11556;51.194;3.800;2023-01-04T13:39:48;9.55;;;1.27;;
22778;SDS011;11556;51.194;3.800;2023-01-04T13:47:19;8.93;;;2.15;;
22778;SDS011;11556;51.194;3.800;2023-01-04T13:49:45;10.85;;;1.50;;
22778;SDS011;11556;51.194;3.800;2023-01-04T13:54:49;10.07;;;2.38;;
22778;SDS011;11556;51.194;3.800;2023-01-04T13:57:16;14.80;;;2.97;;
22778;SDS011;11556;51.194;3.800;2023-01-04T13:59:47;16.15;;;2.67;;
22778;SDS011;11556;51.194;3.800;2023-01-04T14:02:17;15.05;;;2.53;;
22778;SDS011;11556;51.194;3.800;2023-01-04T14:04:45;13.52;;;2.88;;
22778;SDS011;11556;51.194;3.800;2023-01-04T14:07:17;17.58;;;2.83;;
22778;SDS011;11556;51.194;3.800;2023-01-04T14:09:50;14.35;;;3.15;;
22778;SDS011;11556;51.194;3.800;2023-01-04T14:12:20;19.55;;;3.45;;
22778;SDS011;11556;51.194;3.800;2023-01-04T14:14:52;17.27;;;2.72;;
22778;SDS011;11556;51.194;3.800;2023-01-04T14:19:58;17.55;;;3.10;;
22778;SDS011;11556;51.194;3.800;2023-01-04T14:22:33;18.93;;;3.13;;
22778;SDS011;11556;51.194;3.800;2023-01-04T14:30:42;13.98;;;2.92;;
22778;SDS011;11556;51.194;3.800;2023-01-04T14:35:39;11.23;;;2.08;;
22778;SDS011;11556;51.194;3.800;2023-01-04T14:38:05;16.63;;;2.80;;
22778;SDS011;11556;51.194;3.800;2023-01-04T14:40:36;15.52;;;2.45;;
22778;SDS011;11556;51.194;3.800;2023-01-04T14:43:29;12.20;;;2.05;;
22778;SDS011;11556;51.194;3.800;2023-01-04T14:45:59;13.80;;;1.88;;
22778;SDS011;11556;51.194;3.800;2023-01-04T14:48:24;8.82;;;1.90;;
22778;SDS011;11556;51.194;3.800;2023-01-04T14:50:50;7.72;;;1.40;;
22778;SDS011;11556;51.194;3.800;2023-01-04T14:53:16;10.35;;;1.50;;
22778;SDS011;11556;51.194;3.800;2023-01-04T14:55:43;7.93;;;1.58;;
22778;SDS011;11556;51.194;3.800;2023-01-04T14:58:08;9.95;;;2.00;;
22778;SDS011;11556;51.194;3.800;2023-01-04T15:00:34;7.63;;;1.50;;
22778;SDS011;11556;51.194;3.800;2023-01-04T15:03:00;7.93;;;1.90;;
22778;SDS011;11556;51.194;3.800;2023-01-04T15:05:25;9.88;;;2.55;;
22778;SDS011;11556;51.194;3.800;2023-01-04T15:07:51;11.98;;;2.70;;
22778;SDS011;11556;51.194;3.800;2023-01-04T15:10:20;13.23;;;2.60;;
22778;SDS011;11556;51.194;3.800;2023-01-04T15:12:48;11.38;;;2.75;;
22778;SDS011;11556;51.194;3.800;2023-01-04T15:15:13;18.98;;;3.08;;
22778;SDS011;11556;51.194;3.800;2023-01-04T15:17:39;19.52;;;3.70;;
22778;SDS011;11556;51.194;3.800;2023-01-04T15:20:05;20.90;;;2.70;;
22778;SDS011;11556;51.194;3.800;2023-01-04T15:22:31;22.55;;;3.45;;
22778;SDS011;11556;51.194;3.800;2023-01-04T15:24:56;21.52;;;3.50;;
22778;SDS011;11556;51.194;3.800;2023-01-04T15:27:22;20.73;;;3.67;;
22778;SDS011;11556;51.194;3.800;2023-01-04T15:29:48;17.63;;;3.58;;
22778;SDS011;11556;51.194;3.800;2023-01-04T15:32:13;26.15;;;4.50;;
22778;SDS011;11556;51.194;3.800;2023-01-04T15:34:39;24.88;;;3.50;;
22778;SDS011;11556;51.194;3.800;2023-01-04T15:37:04;20.95;;;3.67;;
22778;SDS011;11556;51.194;3.800;2023-01-04T15:39:30;27.80;;;4.03;;
22778;SDS011;11556;51.194;3.800;2023-01-04T15:41:55;17.45;;;3.33;;
22778;SDS011;11556;51.194;3.800;2023-01-04T15:44:41;35.95;;;4.90;;
22778;SDS011;11556;51.194;3.800;2023-01-04T15:47:07;35.65;;;5.22;;
22778;SDS011;11556;51.194;3.800;2023-01-04T15:49:32;34.35;;;4.97;;
22778;SDS011;11556;51.194;3.800;2023-01-04T15:51:58;37.22;;;5.75;;
22778;SDS011;11556;51.194;3.800;2023-01-04T15:54:24;34.95;;;6.38;;
22778;SDS011;11556;51.194;3.800;2023-01-04T15:56:53;31.67;;;4.85;;
22778;SDS011;11556;51.194;3.800;2023-01-04T15:59:19;37.85;;;5.25;;
22778;SDS011;11556;51.194;3.800;2023-01-04T16:01:45;41.85;;;6.15;;
22778;SDS011;11556;51.194;3.800;2023-01-04T16:04:11;33.90;;;5.03;;
22778;SDS011;11556;51.194;3.800;2023-01-04T16:06:37;32.05;;;5.65;;
22778;SDS011;11556;51.194;3.800;2023-01-04T16:09:03;38.75;;;6.03;;
22778;SDS011;11556;51.194;3.800;2023-01-04T16:11:29;42.42;;;6.53;;
22778;SDS011;11556;51.194;3.800;2023-01-04T16:13:55;50.88;;;7.20;;
22778;SDS011;11556;51.194;3.800;2023-01-04T16:16:21;36.70;;;6.35;;
22778;SDS011;11556;51.194;3.800;2023-01-04T16:18:49;42.67;;;6.75;;
22778;SDS011;11556;51.194;3.800;2023-01-04T16:21:20;41.10;;;6.45;;
22778;SDS011;11556;51.194;3.800;2023-01-04T16:26:15;39.30;;;6.30;;
22778;SDS011;11556;51.194;3.800;2023-01-04T16:28:40;38.55;;;5.93;;
22778;SDS011;11556;51.194;3.800;2023-01-04T16:31:06;42.60;;;5.88;;
22778;SDS011;11556;51.194;3.800;2023-01-04T16:33:33;45.70;;;6.68;;
22778;SDS011;11556;51.194;3.800;2023-01-04T16:36:03;36.97;;;6.65;;
22778;SDS011;11556;51.194;3.800;2023-01-04T16:38:30;44.75;;;6.57;;
22778;SDS011;11556;51.194;3.800;2023-01-04T16:40:59;42.15;;;6.35;;
22778;SDS011;11556;51.194;3.800;2023-01-04T16:43:27;44.60;;;6.38;;
22778;SDS011;11556;51.194;3.800;2023-01-04T16:46:12;39.30;;;5.63;;
22778;SDS011;11556;51.194;3.800;2023-01-04T16:48:44;44.33;;;5.90;;
22778;SDS011;11556;51.194;3.800;2023-01-04T16:51:14;42.97;;;6.20;;
22778;SDS011;11556;51.194;3.800;2023-01-04T16:53:40;48.97;;;7.20;;
22778;SDS011;11556;51.194;3.800;2023-01-04T16:56:08;42.40;;;6.88;;
22778;SDS011;11556;51.194;3.800;2023-01-04T16:58:35;39.25;;;5.93;;
22778;SDS011;11556;51.194;3.800;2023-01-04T17:01:08;43.47;;;6.72;;
22778;SDS011;11556;51.194;3.800;2023-01-04T17:03:35;38.88;;;5.80;;
22778;SDS011;11556;51.194;3.800;2023-01-04T17:06:08;40.15;;;6.30;;
22778;SDS011;11556;51.194;3.800;2023-01-04T17:08:38;44.83;;;6.00;;
22778;SDS011;11556;51.194;3.800;2023-01-04T17:11:05;36.92;;;6.07;;
22778;SDS011;11556;51.194;3.800;2023-01-04T17:13:33;40.38;;;6.10;;
22778;SDS011;11556;51.194;3.800;2023-01-04T17:16:02;42.88;;;6.90;;
22778;SDS011;11556;51.194;3.800;2023-01-04T17:18:28;37.80;;;6.53;;
22778;SDS011;11556;51.194;3.800;2023-01-04T17:20:55;45.72;;;6.38;;